Time;durP1;ratioP1;P1;durP2;ratioP2;P2;SDS_P1;SDS_P2;PMS_P1;PMS_P2;Temp;Humidity;BMP_temperature;BMP_pressure;BME280_temperature;BME280_humidity;BME280_pressure;Samples;Min_cycle;Max_cycle;Signal;HPM_P1;HPM_P2
2022/10/06 00:00:32;;;;;;;6.50;1.30;;;;;;;12.88;100.00;102064.91;4937214;29;20130;-59
2022/10/06 00:02:58;;;;;;;5.18;1.30;;;;;;;12.94;99.66;102065.78;4937223;29;20040;-58
2022/10/06 00:05:23;;;;;;;7.68;1.60;;;;;;;12.85;100.00;102075.41;4923028;29;20036;-59
2022/10/06 00:07:48;;;;;;;8.23;1.73;;;;;;;12.76;100.00;102064.94;4917907;29;20118;-59
2022/10/06 00:10:14;;;;;;;6.25;1.60;;;;;;;12.77;100.00;102077.22;4917475;29;20062;-59
2022/10/06 00:12:49;;;;;;;7.75;1.33;;;;;;;12.80;100.00;102090.34;4917632;29;20317;-58
2022/10/06 00:15:17;;;;;;;7.90;1.88;;;;;;;12.81;100.00;102107.81;4917406;29;20040;-59
2022/10/06 00:17:42;;;;;;;5.47;1.35;;;;;;;12.76;100.00;102106.97;4917529;29;20036;-59
2022/10/06 00:20:09;;;;;;;9.40;1.60;;;;;;;12.71;100.00;102105.22;4917704;29;20051;-59
2022/10/06 00:22:41;;;;;;;8.05;1.52;;;;;;;12.69;100.00;102109.59;4917771;29;20110;-59
2022/10/06 00:25:07;;;;;;;;;;;;;;;12.84;100.00;102113.06;4918146;29;20044;-59
2022/10/06 00:27:35;;;;;;;7.88;2.28;;;;;;;12.70;100.00;102120.09;4917614;29;19927;-58
2022/10/06 00:30:03;;;;;;;7.80;1.48;;;;;;;12.65;100.00;102115.72;4917622;29;20064;-58
2022/10/06 00:32:29;;;;;;;9.40;1.80;;;;;;;12.62;100.00;102118.38;4917410;29;20040;-58
2022/10/06 00:34:54;;;;;;;7.95;1.42;;;;;;;12.66;100.00;102128.88;4917418;29;20032;-58
2022/10/06 00:37:19;;;;;;;7.38;1.52;;;;;;;12.63;100.00;102144.66;4917643;29;20503;-59
2022/10/06 00:39:44;;;;;;;6.93;1.48;;;;;;;12.60;100.00;102130.66;4917411;29;20039;-59
2022/10/06 00:42:20;;;;;;;9.70;1.80;;;;;;;12.69;100.00;102138.50;4917526;29;20701;-59
2022/10/06 00:44:48;;;;;;;5.30;1.50;;;;;;;12.60;100.00;102147.28;4917187;29;20072;-60
2022/10/06 00:47:13;;;;;;;7.63;1.77;;;;;;;12.55;100.00;102144.66;4917218;29;20122;-59
2022/10/06 00:49:38;;;;;;;6.82;1.80;;;;;;;12.56;100.00;102142.91;4917431;29;20127;-59
2022/10/06 00:52:11;;;;;;;5.35;1.48;;;;;;;12.63;100.00;102147.28;4917235;29;20040;-60
2022/10/06 00:54:37;;;;;;;7.75;1.58;;;;;;;12.57;100.00;102156.91;4917287;29;20035;-58
2022/10/06 00:57:03;;;;;;;7.25;2.13;;;;;;;12.60;100.00;102160.41;4915971;29;20123;-59
2022/10/06 00:59:29;;;;;;;7.05;1.60;;;;;;;12.61;100.00;102154.28;4917211;29;20043;-58
2022/10/06 01:02:06;;;;;;;9.85;1.65;;;;;;;12.59;100.00;102157.78;4917105;29;20032;-59
2022/10/06 01:04:34;;;;;;;8.18;1.90;;;;;;;12.48;100.00;102163.00;4917034;29;20027;-58
2022/10/06 01:07:00;;;;;;;7.38;1.95;;;;;;;12.50;100.00;102170.03;4916648;29;20380;-59
2022/10/06 01:09:28;;;;;;;7.90;2.38;;;;;;;12.59;99.05;102166.53;4916374;29;20052;-60
2022/10/06 01:11:58;;;;;;;8.10;2.15;;;;;;;12.58;98.27;102166.53;4916755;29;20051;-60
2022/10/06 01:14:24;;;;;;;7.10;1.70;;;;;;;12.51;98.68;102187.53;4916798;29;20058;-59
2022/10/06 01:16:54;;;;;;;7.72;1.98;;;;;;;12.46;98.12;102185.81;4916573;29;20447;-59
2022/10/06 01:19:43;;;;;;;7.15;1.58;;;;;;;12.36;98.79;102191.91;4916856;29;20047;-59
2022/10/06 01:22:11;;;;;;;10.18;2.00;;;;;;;12.34;98.64;102204.16;4916033;29;20397;-59
2022/10/06 01:24:36;;;;;;;8.80;1.45;;;;;;;12.29;98.77;102206.78;4916401;29;20115;-58
2022/10/06 01:27:04;;;;;;;10.63;1.73;;;;;;;12.36;97.14;102202.41;4916547;29;20127;-59
2022/10/06 01:29:35;;;;;;;6.18;1.60;;;;;;;12.33;98.63;102208.50;4916444;29;20040;-58
2022/10/06 01:32:01;;;;;;;11.77;2.00;;;;;;;12.27;99.22;102211.16;4916569;29;20475;-58
2022/10/06 01:34:27;;;;;;;8.75;1.95;;;;;;;12.31;98.20;102212.00;4915847;29;20047;-59
2022/10/06 01:36:52;;;;;;;10.18;1.42;;;;;;;12.29;98.49;102225.16;4916629;29;20707;-59
2022/10/06 01:39:18;;;;;;;7.03;1.80;;;;;;;12.23;99.25;102225.13;4916178;29;20032;-60
2022/10/06 01:41:46;;;;;;;10.70;2.00;;;;;;;12.19;98.58;102226.00;4916213;29;20384;-60
2022/10/06 01:44:11;;;;;;;9.68;1.70;;;;;;;12.18;98.97;102229.50;4916334;29;20115;-60
2022/10/06 01:46:37;;;;;;;11.93;2.08;;;;;;;12.15;97.94;102235.59;4916261;29;20546;-58
2022/10/06 01:49:02;;;;;;;9.20;1.70;;;;;;;12.22;96.46;102235.63;4916200;29;20495;-59
2022/10/06 01:51:27;;;;;;;10.63;2.20;;;;;;;12.15;97.87;102238.22;4916420;29;20040;-60
2022/10/06 01:53:52;;;;;;;11.75;1.75;;;;;;;12.09;97.88;102246.09;4915881;29;20040;-60
2022/10/06 01:56:19;;;;;;;10.82;1.92;;;;;;;12.05;97.46;102249.59;4916138;29;20036;-59
2022/10/06 01:58:45;;;;;;;8.73;1.77;;;;;;;12.03;97.43;102253.06;4915908;29;20071;-59
2022/10/06 02:01:10;;;;;;;9.60;1.80;;;;;;;12.00;97.45;102261.81;4915823;29;20067;-60
2022/10/06 02:03:37;;;;;;;7.35;1.73;;;;;;;12.03;97.55;102253.94;4915572;29;20122;-58
2022/10/06 02:06:03;;;;;;;11.02;2.30;;;;;;;12.05;96.82;102262.69;4915721;29;20036;-59
2022/10/06 02:08:28;;;;;;;11.40;2.00;;;;;;;12.10;95.16;102253.09;4915733;29;20416;-59
2022/10/06 02:10:54;;;;;;;10.88;2.03;;;;;;;12.03;96.93;102256.56;4915804;29;20074;-59
2022/10/06 02:13:22;;;;;;;11.57;1.92;;;;;;;11.98;97.49;102257.41;4915727;29;20732;-58
2022/10/06 02:15:47;;;;;;;13.43;2.78;;;;;;;12.00;96.37;102263.56;4915796;29;20040;-59
2022/10/06 02:18:13;;;;;;;8.68;1.92;;;;;;;12.02;95.75;102270.56;4915682;29;20055;-59
2022/10/06 02:20:39;;;;;;;9.23;1.73;;;;;;;11.96;96.55;102272.28;4915271;29;20114;-58
2022/10/06 02:23:04;;;;;;;6.95;2.03;;;;;;;11.96;96.08;102272.28;4915734;29;20079;-59
2022/10/06 02:25:30;;;;;;;8.88;1.90;;;;;;;11.97;95.55;102277.53;4915696;29;20040;-60
2022/10/06 02:27:55;;;;;;;13.50;2.38;;;;;;;11.95;95.48;102283.66;4915689;29;20055;-60
2022/10/06 02:30:20;;;;;;;13.40;2.08;;;;;;;11.91;95.61;102288.03;4915464;29;20111;-59
2022/10/06 02:32:45;;;;;;;15.75;2.78;;;;;;;11.82;96.39;102296.72;4915611;29;20047;-60
2022/10/06 02:35:11;;;;;;;8.63;2.30;;;;;;;11.78;97.13;102302.78;4915439;29;20032;-59
2022/10/06 02:37:37;;;;;;;12.77;2.17;;;;;;;11.76;97.37;102298.44;4915339;29;20047;-59
2022/10/06 02:40:03;;;;;;;10.32;2.15;;;;;;;11.76;96.78;102299.31;4915591;29;20040;-59
2022/10/06 02:42:29;;;;;;;10.85;2.15;;;;;;;11.75;97.70;102313.25;4915586;29;20413;-59
2022/10/06 02:44:54;;;;;;;14.02;2.72;;;;;;;11.68;97.85;102307.97;4915478;29;20127;-59
2022/10/06 02:47:21;;;;;;;10.50;2.00;;;;;;;11.73;97.27;102309.75;4915482;29;20448;-60
2022/10/06 02:49:46;;;;;;;10.63;2.08;;;;;;;11.69;98.28;102320.22;4915494;29;20040;-59
2022/10/06 02:52:12;;;;;;;14.15;2.40;;;;;;;11.72;97.58;102320.22;4915366;29;20356;-59
2022/10/06 02:54:37;;;;;;;9.85;2.25;;;;;;;11.70;97.57;102333.34;4915185;29;20044;-59
2022/10/06 02:57:02;;;;;;;7.28;1.95;;;;;;;11.63;98.65;102335.91;4915507;29;20044;-58
2022/10/06 02:59:27;;;;;;;12.07;2.08;;;;;;;11.60;98.21;102328.88;4915301;29;20074;-59
2022/10/06 03:01:53;;;;;;;10.65;2.08;;;;;;;11.41;99.38;102316.56;4915280;29;20068;-60
2022/10/06 03:04:19;;;;;;;9.00;1.88;;;;;;;11.47;99.52;102340.16;4915299;29;20040;-59
2022/10/06 03:06:44;;;;;;;10.68;2.25;;;;;;;11.53;98.71;102340.22;4915166;29;20040;-59
2022/10/06 03:09:10;;;;;;;7.38;2.00;;;;;;;11.47;98.79;102353.28;4915412;29;20043;-59
2022/10/06 03:11:37;;;;;;;12.20;2.30;;;;;;;11.39;99.61;102358.47;4894974;29;20710;-59
2022/10/06 03:14:04;;;;;;;11.80;2.25;;;;;;;11.46;99.42;102356.75;4914303;29;20040;-58
2022/10/06 03:16:32;;;;;;;9.85;1.90;;;;;;;11.35;99.75;102361.94;4915288;29;20046;-59
2022/10/06 03:18:58;;;;;;;11.18;1.90;;;;;;;11.40;99.73;102372.47;4914888;29;20100;-59
2022/10/06 03:21:26;;;;;;;9.85;2.38;;;;;;;11.32;100.00;102375.00;4917625;29;20050;-59
2022/10/06 03:23:52;;;;;;;11.52;2.30;;;;;;;11.33;100.00;102373.28;4918539;29;20457;-59
2022/10/06 03:26:22;;;;;;;11.30;2.38;;;;;;;11.28;100.00;102375.84;4918833;29;20031;-59
2022/10/06 03:28:47;;;;;;;8.65;2.13;;;;;;;11.26;100.00;102379.31;4918191;29;20478;-59
2022/10/06 03:31:14;;;;;;;8.25;2.10;;;;;;;11.27;99.53;102374.09;4918414;29;20068;-59
2022/10/06 03:33:39;;;;;;;9.82;2.20;;;;;;;11.24;100.00;102383.69;4918697;29;20356;-59
2022/10/06 03:36:08;;;;;;;8.77;2.00;;;;;;;11.14;100.00;102388.84;4918472;29;20044;-60
2022/10/06 03:38:35;;;;;;;12.65;2.15;;;;;;;11.16;99.78;102387.09;4918516;29;20140;-58
2022/10/06 03:41:12;;;;;;;12.27;2.38;;;;;;;11.20;99.99;102393.25;4918440;29;20484;-59
2022/10/06 03:43:41;;;;;;;13.48;2.40;;;;;;;11.09;100.00;102397.50;4918467;29;20040;-59
2022/10/06 03:46:08;;;;;;;11.88;2.45;;;;;;;11.12;99.86;102402.78;4918344;29;20079;-59
2022/10/06 03:48:34;;;;;;;12.00;2.40;;;;;;;11.08;99.87;102408.88;4917991;29;20044;-58
2022/10/06 03:51:03;;;;;;;11.25;2.65;;;;;;;11.06;99.86;102407.97;4917823;29;20225;-59
2022/10/06 03:53:29;;;;;;;14.10;2.53;;;;;;;11.02;100.00;102411.44;4917605;29;20459;-59
2022/10/06 03:56:05;;;;;;;12.00;2.13;;;;;;;11.01;100.00;102415.78;4918138;29;20036;-59
2022/10/06 03:58:33;;;;;;;11.00;2.05;;;;;;;11.02;100.00;102419.28;4917914;29;20098;-59
2022/10/06 04:01:09;;;;;;;14.10;2.38;;;;;;;11.04;99.39;102422.81;4917898;29;20047;-58
2022/10/06 04:03:35;;;;;;;12.48;2.17;;;;;;;10.95;100.00;102435.78;4917696;29;20111;-59
2022/10/06 04:06:03;;;;;;;18.30;3.17;;;;;;;10.93;99.53;102434.88;4917873;29;20044;-59
2022/10/06 04:08:29;;;;;;;13.32;2.50;;;;;;;10.86;100.00;102438.31;4917782;29;20439;-60
2022/10/06 04:11:03;;;;;;;13.05;2.67;;;;;;;10.82;100.00;102437.41;4917544;29;20056;-59
2022/10/06 04:13:28;;;;;;;11.73;2.28;;;;;;;10.80;100.00;102442.63;4917596;29;20736;-60
2022/10/06 04:15:54;;;;;;;12.15;2.40;;;;;;;10.90;98.81;102447.97;4917541;29;20042;-60
2022/10/06 04:18:19;;;;;;;14.40;2.40;;;;;;;10.86;98.65;102457.53;4917850;29;20028;-59
2022/10/06 04:20:44;;;;;;;14.60;2.60;;;;;;;10.78;99.40;102454.81;4917692;29;20115;-59
2022/10/06 04:23:10;;;;;;;14.40;2.35;;;;;;;10.76;100.00;102455.66;4917723;29;20048;-59
2022/10/06 04:25:35;;;;;;;13.45;2.40;;;;;;;10.71;99.96;102460.88;4917632;29;20448;-58
2022/10/06 04:28:00;;;;;;;13.98;3.00;;;;;;;10.65;99.94;102470.38;4917287;29;20040;-59
2022/10/06 04:30:26;;;;;;;12.95;2.65;;;;;;;10.53;99.66;102450.16;4917480;29;20428;-59
2022/10/06 04:32:52;;;;;;;12.25;2.47;;;;;;;10.67;99.20;102474.78;4917243;29;20046;-59
2022/10/06 04:35:18;;;;;;;13.50;2.63;;;;;;;10.61;100.00;102472.06;4917411;29;20443;-59
2022/10/06 04:37:43;;;;;;;10.93;2.25;;;;;;;10.59;100.00;102476.41;4917584;29;20039;-59
2022/10/06 04:40:09;;;;;;;15.00;3.38;;;;;;;10.53;100.00;102483.31;4917218;29;20048;-60
2022/10/06 04:42:35;;;;;;;11.75;2.58;;;;;;;10.46;100.00;102477.97;4897443;29;20471;-59
2022/10/06 04:45:01;;;;;;;16.05;2.72;;;;;;;10.47;100.00;102484.09;4916034;29;20416;-59
2022/10/06 04:47:26;;;;;;;16.85;3.00;;;;;;;10.51;99.62;102488.53;4917320;29;20052;-59
2022/10/06 04:49:51;;;;;;;18.02;2.85;;;;;;;10.43;100.00;102493.66;4917300;29;20458;-59
2022/10/06 04:52:16;;;;;;;16.38;2.65;;;;;;;10.40;100.00;102493.59;4917347;29;20036;-59
2022/10/06 04:54:42;;;;;;;15.95;2.65;;;;;;;10.42;100.00;102497.13;4917106;29;20040;-59
2022/10/06 04:57:07;;;;;;;16.67;3.42;;;;;;;10.45;100.00;102496.28;4917191;29;20040;-62
2022/10/06 05:02:16;;;;;;;17.10;2.85;;;;;;;10.35;100.00;102507.50;4916788;29;20480;-59
2022/10/06 05:04:42;;;;;;;16.45;2.78;;;;;;;10.31;100.00;102511.81;4917122;29;20032;-59
2022/10/06 05:07:07;;;;;;;13.45;2.80;;;;;;;10.26;100.00;102516.06;4916566;29;20059;-59
2022/10/06 05:09:32;;;;;;;18.63;2.92;;;;;;;10.23;100.00;102515.16;4916723;29;20127;-60
2022/10/06 05:11:57;;;;;;;14.30;2.88;;;;;;;10.34;99.55;102534.53;4916760;29;20040;-59
2022/10/06 05:14:23;;;;;;;18.05;2.90;;;;;;;10.22;100.00;102529.97;4916761;29;20510;-59
2022/10/06 05:16:48;;;;;;;17.05;2.80;;;;;;;10.23;100.00;102536.06;4916706;29;20538;-60
2022/10/06 05:19:15;;;;;;;17.55;3.47;;;;;;;10.19;100.00;102539.53;4916872;29;20446;-59
2022/10/06 05:21:40;;;;;;;12.23;2.72;;;;;;;10.18;100.00;102550.81;4916813;29;20074;-59
2022/10/06 05:24:06;;;;;;;15.15;2.97;;;;;;;10.19;100.00;102544.75;4916546;29;20127;-59
2022/10/06 05:26:33;;;;;;;14.68;2.50;;;;;;;10.11;100.00;102553.31;4916795;29;20036;-59
2022/10/06 05:28:59;;;;;;;14.45;2.97;;;;;;;10.15;100.00;102556.88;4916364;29;20383;-59
2022/10/06 05:31:27;;;;;;;18.05;3.20;;;;;;;10.10;100.00;102563.75;4916568;29;20115;-60
2022/10/06 05:33:53;;;;;;;14.88;2.50;;;;;;;10.08;100.00;102560.22;4916500;29;20379;-59
2022/10/06 05:36:22;;;;;;;16.02;3.15;;;;;;;10.07;100.00;102561.97;4916433;29;20036;-59
2022/10/06 05:38:47;;;;;;;17.33;3.28;;;;;;;10.08;99.81;102568.09;4916210;29;20059;-60
2022/10/06 05:41:15;;;;;;;15.40;2.95;;;;;;;10.08;99.86;102578.53;4916074;29;20352;-59
2022/10/06 05:43:41;;;;;;;17.05;2.70;;;;;;;10.00;100.00;102585.41;4915289;29;20332;-59
2022/10/06 05:46:16;;;;;;;18.52;3.30;;;;;;;10.05;99.79;102589.84;4916199;29;20048;-58
2022/10/06 05:48:43;;;;;;;13.65;3.08;;;;;;;9.95;100.00;102592.28;4916127;29;20039;-59
2022/10/06 05:51:09;;;;;;;16.48;2.88;;;;;;;9.96;100.00;102594.03;4916276;29;20036;-59
2022/10/06 05:53:35;;;;;;;15.57;2.83;;;;;;;9.94;100.00;102601.84;4915842;29;20111;-60
2022/10/06 05:56:21;;;;;;;17.75;3.30;;;;;;;9.89;100.00;102600.88;4915917;29;20039;-59
2022/10/06 05:58:50;;;;;;;15.25;3.63;;;;;;;9.88;100.00;102603.47;4916059;29;20119;-59
2022/10/06 06:01:30;;;;;;;16.52;3.00;;;;;;;9.88;100.00;102596.50;4915763;29;20463;-59
2022/10/06 06:04:01;;;;;;;14.23;2.88;;;;;;;9.88;100.00;102606.09;4915928;29;20444;-59
2022/10/06 06:06:31;;;;;;;21.67;2.90;;;;;;;9.98;100.00;102614.13;4915733;29;20783;-59
2022/10/06 06:09:11;;;;;;;18.73;3.00;;;;;;;9.96;100.00;102608.00;4914711;29;20051;-62
2022/10/06 06:11:39;;;;;;;18.48;3.40;;;;;;;10.01;99.09;102623.78;4915841;29;20064;-59
2022/10/06 06:14:07;;;;;;;21.15;3.40;;;;;;;9.92;100.00;102624.47;4915629;29;20036;-59
2022/10/06 06:16:34;;;;;;;17.52;2.92;;;;;;;9.90;100.00;102623.56;4915603;29;20075;-59
2022/10/06 06:19:00;;;;;;;17.20;2.95;;;;;;;9.93;100.00;102621.00;4915433;29;20047;-56
2022/10/06 06:21:26;;;;;;;22.70;3.70;;;;;;;9.95;100.00;102621.94;4915548;29;20044;-60
2022/10/06 06:23:52;;;;;;;20.77;3.67;;;;;;;9.94;100.00;102625.38;4915737;29;20108;-59
2022/10/06 06:26:23;;;;;;;17.83;3.20;;;;;;;9.94;100.00;102632.34;4915561;29;20036;-59
2022/10/06 06:28:49;;;;;;;16.25;2.70;;;;;;;10.00;100.00;102632.47;4915540;29;20039;-60
2022/10/06 06:31:25;;;;;;;12.88;2.95;;;;;;;10.05;100.00;102638.66;4915435;29;20046;-59
2022/10/06 06:33:52;;;;;;;19.88;3.08;;;;;;;10.19;99.27;102639.81;4915444;29;20043;-59
2022/10/06 06:36:21;;;;;;;14.38;3.05;;;;;;;10.40;98.26;102650.63;4915073;29;20044;-59
2022/10/06 06:38:50;;;;;;;17.67;3.38;;;;;;;10.51;98.32;102650.81;4915634;29;20044;-59
2022/10/06 06:41:18;;;;;;;17.38;3.03;;;;;;;10.69;97.01;102642.34;4915407;29;20428;-59
2022/10/06 06:43:44;;;;;;;17.08;3.10;;;;;;;10.80;96.86;102646.00;4915476;29;20043;-59
2022/10/06 06:46:10;;;;;;;16.42;2.67;;;;;;;10.90;96.39;102653.16;4915218;29;20374;-59
2022/10/06 06:48:36;;;;;;;13.85;2.78;;;;;;;10.97;96.20;102657.59;4915466;29;20083;-60
2022/10/06 06:51:02;;;;;;;18.00;3.15;;;;;;;10.98;94.35;102667.22;4915408;29;20464;-59
2022/10/06 06:53:28;;;;;;;19.23;3.50;;;;;;;11.02;92.89;102665.53;4915463;29;20040;-59
2022/10/06 06:55:53;;;;;;;17.77;3.17;;;;;;;10.97;95.05;102675.94;4916972;29;20436;-58
2022/10/06 06:58:19;;;;;;;15.30;2.90;;;;;;;11.08;94.94;102673.50;4919266;29;20036;-59
2022/10/06 07:00:44;;;;;;;15.20;3.20;;;;;;;11.29;91.20;102673.75;4919247;29;20039;-60
2022/10/06 07:03:15;;;;;;;15.32;3.30;;;;;;;11.32;93.61;102683.41;4919118;29;20356;-60
2022/10/06 07:05:40;;;;;;;16.02;3.10;;;;;;;11.39;92.34;102686.13;4919204;29;20130;-60
2022/10/06 07:08:10;;;;;;;17.15;3.38;;;;;;;11.51;92.30;102688.91;4919151;29;20773;-59
2022/10/06 07:10:36;;;;;;;15.60;3.42;;;;;;;11.57;91.44;102690.72;4918842;29;20056;-59
2022/10/06 07:13:03;;;;;;;24.08;3.40;;;;;;;11.69;89.62;102695.22;4919010;29;20496;-58
2022/10/06 07:26:29;;;;;;;18.40;3.33;;;;;;;11.83;89.56;102719.91;4918669;29;20094;-59
2022/10/06 07:28:58;;;;;;;17.83;3.63;;;;;;;12.04;90.62;102719.25;4918785;29;20064;-60
2022/10/06 07:31:24;;;;;;;19.55;4.07;;;;;;;12.17;87.40;102711.53;4918747;29;20047;-58
2022/10/06 07:33:49;;;;;;;19.88;3.35;;;;;;;12.17;87.91;102729.88;4918387;29;20034;-59
2022/10/06 07:36:15;;;;;;;22.25;3.15;;;;;;;12.28;87.68;102723.88;4918731;29;20071;-60
2022/10/06 07:38:40;;;;;;;17.02;3.20;;;;;;;12.43;85.50;102734.53;4918436;29;20043;-58
2022/10/06 07:41:06;;;;;;;14.02;3.30;;;;;;;12.26;87.60;102738.75;4918316;29;20036;-59
2022/10/06 07:43:31;;;;;;;18.73;3.65;;;;;;;12.27;86.58;102748.38;4913363;29;20048;-59
2022/10/06 07:45:56;;;;;;;15.25;3.13;;;;;;;12.23;86.46;102742.22;4916637;29;20044;-58
2022/10/06 07:48:22;;;;;;;15.48;3.38;;;;;;;12.30;86.19;102749.25;4918002;29;20103;-60
2022/10/06 07:50:49;;;;;;;13.98;3.05;;;;;;;12.32;87.42;102759.78;4918226;29;20071;-59
2022/10/06 07:53:16;;;;;;;12.35;3.08;;;;;;;12.32;87.09;102757.16;4918410;29;20079;-60
2022/10/06 07:55:45;;;;;;;16.50;2.88;;;;;;;12.40;85.61;102763.38;4918313;29;20760;-58
2022/10/06 07:58:15;;;;;;;15.50;3.00;;;;;;;12.38;85.55;102758.09;4910467;29;20032;-60
2022/10/06 08:00:42;;;;;;;16.25;3.58;;;;;;;12.44;86.52;102757.28;4918228;29;20092;-58
2022/10/06 08:03:08;;;;;;;15.27;2.83;;;;;;;12.55;84.90;102768.78;4917976;29;20055;-59
2022/10/06 08:05:33;;;;;;;17.95;3.00;;;;;;;12.48;85.50;102770.44;4916554;29;20396;-58
2022/10/06 08:07:59;;;;;;;17.40;3.40;;;;;;;12.86;86.01;102762.91;4917359;29;20046;-59
2022/10/06 08:10:24;;;;;;;16.48;3.53;;;;;;;13.20;83.74;102773.69;4917883;29;20051;-59
2022/10/06 08:12:49;;;;;;;17.50;3.47;;;;;;;13.09;82.52;102775.34;4917809;29;20060;-59
2022/10/06 08:15:15;;;;;;;19.55;3.15;;;;;;;12.96;84.02;102773.50;4917289;29;20052;-59
2022/10/06 08:17:40;;;;;;;17.90;3.35;;;;;;;12.90;84.17;102780.47;4917861;29;20067;-59
2022/10/06 08:20:08;;;;;;;16.83;3.15;;;;;;;12.98;84.83;102788.41;4917363;29;20040;-58
2022/10/06 08:22:35;;;;;;;14.73;3.10;;;;;;;13.16;84.31;102792.97;4917847;29;20082;-59
2022/10/06 08:25:00;;;;;;;18.90;3.05;;;;;;;13.27;82.75;102788.66;4917684;29;20179;-58
2022/10/06 08:27:27;;;;;;;13.85;3.53;;;;;;;13.46;81.81;102798.41;4917684;29;20115;-59
2022/10/06 08:29:53;;;;;;;21.60;3.67;;;;;;;13.52;80.49;102802.81;4917484;29;20053;-60
2022/10/06 08:32:19;;;;;;;15.70;2.97;;;;;;;13.43;81.96;102808.91;4917485;29;20036;-60
2022/10/06 08:34:44;;;;;;;17.20;3.53;;;;;;;13.50;80.90;102810.72;4917518;29;20078;-60
2022/10/06 08:37:10;;;;;;;15.82;3.42;;;;;;;13.61;81.87;102812.53;4917678;29;20059;-60
2022/10/06 08:39:35;;;;;;;15.90;3.88;;;;;;;13.66;81.56;102821.34;4917374;29;20049;-61
2022/10/06 08:42:00;;;;;;;23.38;3.95;;;;;;;13.85;79.81;102817.94;4917544;29;20041;-62
2022/10/06 08:44:39;;;;;;;11.90;2.50;;;;;;;13.96;80.03;102824.09;4916769;29;20131;-62
2022/10/06 08:47:27;;;;;;;14.82;3.53;;;;;;;14.25;79.83;102811.03;4917451;29;20107;-61
2022/10/06 08:49:53;;;;;;;12.98;2.58;;;;;;;14.25;78.41;102817.19;4917355;29;20044;-61
2022/10/06 08:53:05;;;;;;;15.13;3.53;;;;;;;14.42;79.39;102822.53;4917214;29;20036;-61
2022/10/06 08:55:41;;;;;;;17.48;2.88;;;;;;;14.55;78.70;102821.66;4917340;29;20035;-60
2022/10/06 08:58:42;;;;;;;13.80;2.60;;;;;;;14.63;78.47;102822.56;4917200;29;20072;-61
2022/10/06 09:01:22;;;;;;;13.35;2.90;;;;;;;14.78;78.49;102824.34;4910060;29;20071;-61
2022/10/06 09:03:50;;;;;;;17.75;3.17;;;;;;;14.88;75.70;102818.22;4917093;29;20351;-63
2022/10/06 09:06:28;;;;;;;17.00;2.92;;;;;;;15.17;77.89;102835.78;4917038;29;20044;-63
2022/10/06 09:08:59;;;;;;;20.02;2.97;;;;;;;15.36;75.37;102840.16;4916905;29;20040;-60
2022/10/06 09:11:40;;;;;;;15.75;3.42;;;;;;;15.43;75.09;102843.66;4916823;29;20063;-61
2022/10/06 09:14:16;;;;;;;14.85;3.28;;;;;;;15.57;76.81;102841.94;4916921;29;20704;-61
2022/10/06 09:16:47;;;;;;;15.77;2.92;;;;;;;15.73;76.78;102838.38;4915362;29;20039;-61
2022/10/06 09:19:20;;;;;;;14.45;3.22;;;;;;;16.07;76.15;102847.03;4916076;29;20048;-61
2022/10/06 09:21:51;;;;;;;16.25;2.90;;;;;;;16.24;74.30;102855.78;4916315;29;20040;-60
2022/10/06 09:24:30;;;;;;;12.20;2.20;;;;;;;16.22;70.36;102852.25;4915548;29;20036;-65
2022/10/06 09:26:57;;;;;;;16.70;2.90;;;;;;;16.24;71.27;102850.47;4918987;29;20451;-64
2022/10/06 09:29:24;;;;;;;10.98;2.90;;;;;;;16.18;70.00;102861.06;4915723;29;20538;-65
2022/10/06 09:31:49;;;;;;;15.20;2.60;;;;;;;16.18;70.39;102852.25;4897990;29;20060;-64
2022/10/06 09:34:29;;;;;;;11.38;1.92;;;;;;;16.44;69.75;102857.44;4897306;29;20078;-63
2022/10/06 09:37:01;;;;;;;10.60;2.63;;;;;;;16.31;68.31;102861.88;4904701;29;20103;-66
2022/10/06 09:39:32;;;;;;;10.07;2.40;;;;;;;16.49;69.35;102872.34;4915862;29;20055;-63
2022/10/06 09:42:01;;;;;;;15.45;2.33;;;;;;;16.45;68.91;102865.31;4915576;29;20039;-65
2022/10/06 09:44:30;;;;;;;12.68;3.15;;;;;;;16.55;70.35;102869.69;4915877;29;20044;-64
2022/10/06 09:46:56;;;;;;;11.27;2.03;;;;;;;16.55;69.32;102874.09;4914424;29;20040;-63
2022/10/06 09:49:30;;;;;;;10.52;2.10;;;;;;;16.46;69.92;102876.78;4906995;29;20363;-63
2022/10/06 09:52:15;;;;;;;11.45;2.40;;;;;;;16.42;70.14;102883.00;4918475;29;20039;-65
2022/10/06 09:54:44;;;;;;;13.02;2.28;;;;;;;16.34;67.52;102875.09;4915986;29;20131;-64
2022/10/06 09:57:25;;;;;;;15.25;2.17;;;;;;;16.18;68.11;102878.69;4917372;29;20046;-63
2022/10/06 09:59:51;;;;;;;13.90;2.50;;;;;;;16.16;67.33;102883.97;4921237;29;20036;-64
2022/10/06 10:02:25;;;;;;;15.25;2.33;;;;;;;16.04;67.81;102881.38;4916625;29;20051;-64
2022/10/06 10:04:54;;;;;;;8.07;2.03;;;;;;;15.92;67.89;102876.16;4916499;29;20365;-63
2022/10/06 10:07:24;;;;;;;11.50;2.25;;;;;;;15.74;68.70;102884.13;4917087;29;20360;-64
2022/10/06 10:10:09;;;;;;;14.82;2.30;;;;;;;15.69;67.74;102881.47;4914129;29;20515;-65
2022/10/06 10:12:35;;;;;;;12.48;2.03;;;;;;;15.75;66.81;102883.25;4916236;29;20415;-65
2022/10/06 10:15:23;;;;;;;10.43;1.95;;;;;;;15.79;66.04;102879.69;4916458;29;20040;-64
2022/10/06 10:17:57;;;;;;;16.63;2.17;;;;;;;15.96;67.69;102881.41;4915048;29;20114;-68
2022/10/06 10:20:28;;;;;;;9.65;1.95;;;;;;;16.15;68.45;102882.22;4913736;29;20219;-64
2022/10/06 10:22:58;;;;;;;10.27;2.28;;;;;;;16.23;66.30;102879.56;4916804;29;20568;-63
2022/10/06 10:25:43;;;;;;;10.82;1.80;;;;;;;16.29;67.95;102888.31;4916086;29;20040;-53
2022/10/06 10:28:27;;;;;;;10.48;2.20;;;;;;;16.47;66.83;102881.19;4917328;29;20403;-50
2022/10/06 10:31:02;;;;;;;9.48;2.00;;;;;;;16.66;65.51;102881.09;4911468;29;20044;-54
2022/10/06 10:33:48;;;;;;;9.80;2.10;;;;;;;16.65;64.98;102875.81;4923659;29;20051;-63
2022/10/06 10:36:16;;;;;;;7.93;1.92;;;;;;;16.64;63.67;102885.50;4912559;29;20040;-62
2022/10/06 10:38:44;;;;;;;9.05;1.80;;;;;;;16.70;62.83;102884.59;4896543;29;20047;-63
2022/10/06 10:41:19;;;;;;;7.60;1.70;;;;;;;16.78;61.48;102881.94;4896293;29;20040;-64
2022/10/06 10:43:51;;;;;;;7.03;1.67;;;;;;;16.82;59.98;102883.66;4896651;29;20040;-63
2022/10/06 10:46:27;;;;;;;6.75;1.85;;;;;;;16.83;60.26;102881.00;4896710;29;20037;-64
2022/10/06 10:49:11;;;;;;;11.65;1.90;;;;;;;16.84;60.82;102880.09;4896458;29;20040;-64
2022/10/06 10:51:45;;;;;;;8.25;1.60;;;;;;;17.01;61.37;102885.28;4896395;29;20377;-64
2022/10/06 10:54:14;;;;;;;8.63;2.03;;;;;;;17.04;58.17;102874.66;4896500;29;20119;-64
2022/10/06 10:56:42;;;;;;;8.48;1.85;;;;;;;17.15;57.45;102878.09;4896628;29;20048;-63
2022/10/06 10:59:10;;;;;;;6.38;1.42;;;;;;;17.18;56.09;102877.19;4896709;29;20045;-63
2022/10/06 11:01:48;;;;;;;9.23;2.00;;;;;;;17.19;59.64;102878.97;4896424;29;20036;-64
2022/10/06 11:04:14;;;;;;;5.15;1.80;;;;;;;17.17;56.50;102886.03;4896318;29;20491;-64
2022/10/06 11:06:51;;;;;;;8.23;1.80;;;;;;;17.16;59.15;102889.56;4896550;29;20066;-64
2022/10/06 11:09:22;;;;;;;9.48;1.98;;;;;;;17.07;58.90;102876.41;4895945;29;20052;-64
2022/10/06 11:12:13;;;;;;;6.60;1.90;;;;;;;17.33;58.37;102885.00;4896312;29;20048;-64
2022/10/06 11:15:05;;;;;;;7.25;1.80;;;;;;;17.24;58.60;102885.09;4896273;29;20040;-65
2022/10/06 11:17:45;;;;;;;;;;;;;;;17.26;60.74;102892.13;4896746;29;20464;-64
2022/10/06 11:20:37;;;;;;;7.60;2.05;;;;;;;17.33;60.79;102883.25;4895974;29;20347;-64
2022/10/06 11:23:22;;;;;;;;;;;;;;;17.57;58.08;102889.19;4896664;29;20116;-63
2022/10/06 11:26:19;;;;;;;7.90;2.20;;;;;;;17.56;57.73;102898.03;4896317;29;20355;-65
2022/10/06 11:28:48;;;;;;;10.90;2.10;;;;;;;17.74;58.33;102895.25;4896077;29;20356;-65
2022/10/06 11:31:34;;;;;;;7.35;1.90;;;;;;;17.65;57.99;102895.34;4896091;29;20036;-64
2022/10/06 11:34:01;;;;;;;8.05;2.15;;;;;;;17.69;57.55;102889.97;4896358;29;20314;-65
2022/10/06 11:36:52;;;;;;;8.43;2.33;;;;;;;17.78;57.50;102893.44;4896193;29;20456;-65
2022/10/06 11:39:48;;;;;;;9.48;2.00;;;;;;;17.87;59.19;102880.97;4896215;29;20036;-65
2022/10/06 11:42:20;;;;;;;8.23;2.38;;;;;;;18.06;55.90;102887.81;4898351;29;20767;-64